My Meet Scores
Brooke Barber, Gym Kinetics Gymnastics - MyMeetScores.com
Top100 | Top Teams | Upcoming Meets | Completed Meets | Latest | Add Scores | Help| Support | Bookmark and Share

Brooke Barber, Gym Kinetics Gymnastics
Personal Bests
LevelVault BarsBeamFloorAA
59.2759.425 9.6009.30037.300
79.5009.475 9.7759.55038.050
89.5259.500 9.6259.60038.075
99.2509.400 9.4009.37537.175
109.1508.575 9.2509.12535.900
Meet Scores
Date Meet Team Session Level Division Vault Bars Beam Floor AA
2020-03-06 2020 Flip'r Invitational Gym Kinetics Gymnastics 3 10 JR B 14 9.150 7 8.300 6 8.650 5 8.775 7 34.875 6
2020-01-10 Leenda's Island Adventure Gym Kinetics Gymnastics PG4 10 14 & Under 8.950 2 8.575 3 9.250 1 9.125 2 35.900 1
2019-12-20 Aspire Classic - 2019 Gym Kinetics Gymnastics 6B 10 Younger 8.900 14 8.400 11T 7.225 17 9.000 11 33.525 15
2019-12-07 Home for the Holidays 2019 Gym Kinetics Gymnastics 3 10 All 8.925 5 6.275 6 8.850 2 8.350 7 32.400 5
2019-04-11 Region 5 9/10 Championships Gym Kinetics Gymnastics 13 9 Jr 5 9.000 17 8.775 20 9.225 13 9.325 13 36.325 15
2019-03-15 Illinois State Championship Level 6,9,10 Gym Kinetics Gymnastics 6 9 Jr C 9.125 16T 8.200 22 8.400 21 9.375 10 35.100 17T
2019-03-01 NGCD Academy's 2019 Flip'r Invitational Gym Kinetics Gymnastics 7 9 Jr 9.125 5 8.700 4 9.400 2 9.100 3T 36.325 2
2019-02-08 Midwest Twisters Harley Meet Womens Gym Kinetics Gymnastics O08 10 14 un 8.775 3 7.650 6 8.075 6 8.650 5 33.150 4
2019-01-18 2019 Bravo Classic Gym Kinetics Gymnastics 6A 9 Child 9.250 2T 9.400 5 9.250 4 9.275 4 37.175 1
2019-01-11 St Jude Benefit Meet Gym Kinetics Gymnastics 3C 9 Jr A 9.075 8 9.075 4 9.075 2 9.225 3T 36.450 2T
2018-03-23 Illinois Level 7 & 8 State Competition Gym Kinetics Gymnastics 04 8 Jr D 9.525 3T 9.075 11 9.250 8T 9.550 1T 37.400 4
2018-02-03 Midwest Games Gym Kinetics Gymnastics 1 9 All 8.575 11 7.775 9 9.050 3 8.950 6T 34.350 8
2018-01-19 2018 Bravo Classic Gym Kinetics Gymnastics 9A 8 Jr 9.350 1 9.500 3 9.400 2T 9.550 1 37.800 1
2017-12-15 2017 Aspire Classic Gym Kinetics Gymnastics 7B 8 Middle 9.425 1 9.425 4 9.625 1 9.600 1 38.075 1
2017-03-23 2017 Illinois Level 6, 7 State Championship Gym Kinetics Gymnastics 2 7 Jr D 9.500 5T 9.325 6 9.675 1 9.550 4T 38.050 2
2017-02-24 Kinetic Classic Gym Kinetics Gymnastics 1 7 All Ages 9.275 11 9.475 7T 9.500 2 9.250 17T 37.500 2
2017-02-09 Hal's Harley-Davidson Invite Gym Kinetics Gymnastics O02 7 11 yrs. 9.225 7T 9.475 2 9.525 1 9.500 1 37.725 1
2017-01-13 St Jude Benefit Meet Gym Kinetics Gymnastics 3B 7 Jr B 9.275 5 9.350 3T 9.775 1 9.550 2 37.950 2
2016-12-16 2016 Aspire Classic Gym Kinetics Gymnastics 2 7 Younger 9.100 4 9.050 4 9.550 1 9.500 1 37.200 2
2016-04-22 2016 Illinois Level 5 And Xcel State Championships Gym Kinetics Gymnastics 4 5 Jr A 9.275 7T 9.425 2 9.300 5 9.300 5T 37.300 2
2015-12-04 2015 Ultimate Wish Classic Gym Kinetics Gymnastics 9A 5 All 8.900 21 9.050 12 9.600 1 9.200 3 36.750 1
Get your scores on
a t-shirt, pin, or hoodie

www.lazysuits.com